logo
Search for airport 
image banner adimage banner adimage banner ad
image banner ad

CA448 - Chucker Farm (Csj7)

Located in , Canada

ICAO - , IATA -

Data provided by Airmate  

General information

Coordinates: N45°25'30" W74°14'44"
Elevation is 181 feet MSL.
 
View others Airports in Quebec

Operational data

Special qualification required
Current time UTC:
Current local time:
Weather at : CYMX - Montreal Intl (Mirabel) ( 33 km )
METAR: CYMX 112200Z 29008G15KT 250V330 15SM BKN025 BKN060 BKN140 M01/M05 A2982 RMK SC5SC1AC1 SLP105
TAF: TAF CYMX 111741Z 1118/1218 25005KT 1 1/2SM -SHRASN BR BKN002 OVC015 TEMPO 1118/1120 6SM -RASN SCT002 OVC015 FM112000 28008G18KT P6SM OVC025 TEMPO 1120/1206 5SM -SHSN OVC020 BECMG 1200/1202 28007KT FM120600 VRB03KT P6SM BKN020 FM121600 21010G20KT 3SM -SHSN FEW008 BKN015 OVC040 RMK NXT FCST BY 120000Z
View NOTAMs / SUP AIP / TFR affecting this airport [VIEW]
Communications frequencies: [VIEW]

Runways:

Airport contact information

Address: Canada

Satellite view of CA448